createdAt,value
2022-09-04T00:00:00.708Z,72.89
2022-09-04T00:05:20.091Z,73.05
2022-09-04T00:10:34.655Z,73.45
2022-09-04T00:15:43.938Z,73.59
2022-09-04T00:20:54.907Z,73.69
2022-09-04T00:26:08.761Z,73.76
2022-09-04T00:31:29.155Z,73.90
2022-09-04T00:36:40.078Z,73.91
2022-09-04T00:42:01.084Z,73.57
2022-09-04T00:47:34.157Z,73.46
2022-09-04T00:52:58.584Z,73.65
2022-09-04T00:58:24.541Z,73.83
2022-09-04T01:04:00.115Z,73.89
2022-09-04T01:09:34.013Z,74.14
2022-09-04T01:14:49.141Z,74.23
2022-09-04T01:20:08.643Z,74.38
2022-09-04T01:25:30.195Z,74.49
2022-09-04T01:30:49.230Z,74.65
2022-09-04T01:36:05.652Z,74.92
2022-09-04T01:41:18.406Z,75.00
2022-09-04T01:46:44.797Z,75.09
2022-09-04T01:52:02.738Z,75.15
2022-09-04T01:57:23.005Z,75.27
2022-09-04T02:02:37.491Z,75.38
2022-09-04T02:07:49.234Z,75.43
2022-09-04T02:13:08.206Z,75.64
2022-09-04T02:18:31.423Z,75.83
2022-09-04T02:23:45.596Z,76.24
2022-09-04T02:28:58.991Z,76.29
2022-09-04T02:34:13.040Z,76.26
2022-09-04T02:39:31.944Z,76.27
2022-09-04T02:44:47.489Z,76.37
2022-09-04T02:50:03.956Z,76.65
2022-09-04T02:55:30.496Z,76.62
2022-09-04T03:00:44.631Z,76.79
2022-09-04T03:05:56.786Z,76.70
2022-09-04T03:11:09.958Z,76.95
2022-09-04T03:16:24.668Z,77.30
2022-09-04T03:21:35.732Z,77.33
2022-09-04T03:26:45.316Z,77.40
2022-09-04T03:32:00.329Z,77.43
2022-09-04T03:37:19.539Z,77.65
2022-09-04T03:42:34.694Z,77.85
2022-09-04T03:47:49.810Z,77.98
2022-09-04T03:53:03.626Z,78.00
2022-09-04T03:58:19.631Z,78.11
2022-09-04T04:04:00.166Z,78.34
2022-09-04T04:09:29.917Z,78.59
2022-09-04T04:14:52.147Z,78.67
2022-09-04T04:20:10.890Z,78.73
2022-09-04T04:25:29.102Z,78.94
2022-09-04T04:30:45.822Z,78.98
2022-09-04T04:36:00.514Z,78.68
2022-09-04T04:41:30.867Z,77.78
2022-09-04T04:46:54.903Z,77.49
2022-09-04T04:52:26.740Z,77.48
2022-09-04T04:57:41.102Z,74.25
2022-09-04T05:03:00.708Z,71.97
2022-09-04T05:08:15.106Z,71.66
2022-09-04T05:13:30.493Z,72.03
2022-09-04T05:18:44.931Z,71.95
2022-09-04T05:23:58.085Z,71.58
2022-09-04T05:29:10.918Z,70.80
2022-09-04T05:34:27.743Z,67.40
2022-09-04T05:39:42.439Z,60.28
2022-09-04T05:44:58.549Z,52.86
2022-09-04T05:50:26.840Z,47.69
2022-09-04T05:55:54.095Z,42.66
2022-09-04T06:01:13.690Z,39.04
2022-09-04T06:06:26.273Z,36.88
2022-09-04T06:11:49.809Z,34.12
2022-09-04T06:17:15.831Z,33.11
2022-09-04T06:23:03.030Z,31.89
2022-09-04T06:28:31.641Z,30.27
2022-09-04T06:34:00.827Z,28.62
2022-09-04T06:39:31.307Z,27.73
2022-09-04T06:44:49.650Z,26.95
2022-09-04T06:50:21.116Z,26.49
2022-09-04T06:55:35.973Z,26.42
2022-09-04T07:00:53.330Z,25.60
2022-09-04T07:06:09.054Z,24.92
2022-09-04T07:11:32.705Z,24.52
2022-09-04T07:16:45.801Z,23.97
2022-09-04T07:22:05.284Z,23.77
2022-09-04T07:27:17.535Z,22.60
2022-09-04T07:32:29.077Z,22.35
2022-09-04T07:37:41.733Z,21.87
2022-09-04T07:42:53.394Z,21.48
2022-09-04T07:48:12.680Z,22.03
2022-09-04T07:53:32.293Z,21.26
2022-09-04T07:58:56.704Z,21.63
2022-09-04T08:04:25.238Z,20.50
2022-09-04T08:09:52.707Z,20.59
2022-09-04T08:15:14.311Z,20.67
2022-09-04T08:20:42.153Z,20.73
2022-09-04T08:26:00.122Z,20.47
2022-09-04T08:31:14.579Z,19.77
2022-09-04T08:36:32.432Z,19.85
2022-09-04T08:42:08.101Z,19.97
2022-09-04T08:47:45.234Z,19.25
2022-09-04T08:53:26.237Z,18.57
2022-09-04T08:59:11.194Z,18.46
2022-09-04T09:05:09.999Z,18.68
2022-09-04T09:10:36.274Z,18.27
2022-09-04T09:16:19.390Z,18.48
2022-09-04T09:21:40.299Z,18.66
2022-09-04T09:27:00.055Z,18.26
2022-09-04T09:32:36.519Z,18.04
2022-09-04T09:38:07.127Z,18.12
2022-09-04T09:43:36.018Z,19.02
2022-09-04T09:49:19.769Z,18.74
2022-09-04T09:54:50.486Z,19.75
2022-09-04T10:00:21.285Z,19.73
2022-09-04T10:05:59.296Z,19.27
2022-09-04T10:11:26.359Z,19.54
2022-09-04T10:17:01.766Z,19.22
2022-09-04T10:22:33.143Z,20.49
2022-09-04T10:28:39.648Z,21.25
2022-09-04T10:34:06.058Z,22.40
2022-09-04T10:39:41.399Z,22.46
2022-09-04T10:45:20.545Z,21.70
2022-09-04T10:50:35.388Z,22.81
2022-09-04T10:56:02.866Z,24.63
2022-09-04T11:01:55.051Z,25.61
2022-09-04T11:07:28.988Z,28.82
2022-09-04T11:12:52.344Z,30.78
2022-09-04T11:18:38.014Z,30.97
2022-09-04T11:24:33.453Z,30.61
2022-09-04T11:29:55.928Z,30.17
2022-09-04T11:35:52.510Z,29.53
2022-09-04T11:41:29.039Z,30.80
2022-09-04T11:47:08.756Z,29.21
2022-09-04T11:52:36.062Z,29.67
2022-09-04T11:58:03.561Z,30.91
2022-09-04T12:03:39.617Z,31.37
2022-09-04T12:09:18.527Z,32.31
2022-09-04T12:14:43.119Z,32.44
2022-09-04T12:20:24.949Z,32.53
2022-09-04T12:25:44.764Z,32.39
2022-09-04T12:31:07.866Z,31.60
2022-09-04T12:36:48.828Z,31.79
2022-09-04T12:42:03.569Z,31.68
2022-09-04T12:47:22.548Z,31.03
2022-09-04T12:52:51.202Z,31.54
2022-09-04T12:58:10.273Z,31.32
2022-09-04T13:03:26.271Z,29.59
2022-09-04T13:08:46.784Z,29.12
2022-09-04T13:14:06.358Z,27.79
2022-09-04T13:19:20.447Z,28.73
2022-09-04T13:24:44.434Z,32.03
2022-09-04T13:30:03.799Z,30.11
2022-09-04T13:35:22.252Z,31.03
2022-09-04T13:40:44.669Z,32.01
2022-09-04T13:45:54.311Z,32.40
2022-09-04T13:51:13.390Z,32.91
2022-09-04T13:56:26.412Z,33.33
2022-09-04T14:01:36.987Z,33.64
2022-09-04T14:06:44.873Z,32.69
2022-09-04T14:12:12.067Z,32.84
2022-09-04T14:17:27.088Z,33.34
2022-09-04T14:22:45.394Z,33.46
2022-09-04T14:28:03.433Z,33.35
2022-09-04T14:33:24.043Z,32.91
2022-09-04T14:39:05.241Z,32.11
2022-09-04T14:44:31.119Z,32.29
2022-09-04T14:49:47.466Z,32.49
2022-09-04T14:54:57.782Z,32.95
2022-09-04T15:00:14.745Z,33.21
2022-09-04T15:05:27.348Z,33.58
2022-09-04T15:10:49.977Z,33.62
2022-09-04T15:15:59.958Z,33.93
2022-09-04T15:21:11.294Z,33.76
2022-09-04T15:26:25.202Z,33.80
2022-09-04T15:31:35.371Z,33.89
2022-09-04T15:36:41.786Z,34.16
2022-09-04T15:41:50.060Z,34.65
2022-09-04T15:47:06.305Z,35.21
2022-09-04T15:52:30.565Z,35.36
2022-09-04T15:57:51.100Z,36.02
2022-09-04T16:03:07.016Z,36.26
2022-09-04T16:08:23.450Z,36.84
2022-09-04T16:13:58.223Z,37.41
2022-09-04T16:19:15.187Z,37.93
2022-09-04T16:24:29.730Z,38.28
2022-09-04T16:29:38.213Z,38.72
2022-09-04T16:34:51.970Z,39.07
2022-09-04T16:40:12.428Z,39.61
2022-09-04T16:45:24.810Z,40.14
2022-09-04T16:50:39.911Z,40.49
2022-09-04T16:55:56.133Z,40.66
2022-09-04T17:01:14.119Z,41.17
2022-09-04T17:06:27.602Z,41.64
2022-09-04T17:11:42.945Z,42.00
2022-09-04T17:16:58.745Z,42.33
2022-09-04T17:26:28.090Z,42.98
2022-09-04T17:29:07.540Z,43.60
2022-09-04T17:38:02.999Z,43.72
2022-09-04T17:40:46.391Z,43.97
2022-09-04T17:45:10.722Z,44.48
2022-09-04T17:50:19.451Z,44.98
2022-09-04T17:55:26.909Z,45.44
2022-09-04T18:00:49.886Z,45.78
2022-09-04T18:06:03.049Z,46.27
2022-09-04T18:11:18.365Z,46.61
2022-09-04T18:22:25.039Z,47.12
2022-09-04T18:27:33.048Z,47.51
2022-09-04T18:37:06.586Z,47.90
2022-09-04T18:38:16.862Z,47.92
2022-09-04T18:50:20.770Z,47.91
2022-09-04T18:50:53.511Z,47.99
2022-09-04T18:54:37.770Z,48.06
2022-09-04T18:59:53.646Z,47.96
2022-09-04T19:05:18.051Z,48.10
2022-09-04T19:10:27.126Z,48.21
2022-09-04T19:15:59.795Z,48.19
2022-09-04T19:21:30.402Z,48.17
2022-09-04T19:26:42.375Z,48.39
2022-09-04T19:31:54.762Z,48.40
2022-09-04T19:38:06.409Z,48.37
2022-09-04T19:46:03.964Z,48.62
2022-09-04T19:48:18.920Z,48.64
2022-09-04T19:53:46.937Z,48.92
2022-09-04T19:59:03.653Z,49.51
2022-09-04T20:04:20.466Z,49.71
2022-09-04T20:09:33.552Z,50.13
2022-09-04T20:14:45.897Z,50.29
2022-09-04T20:19:56.342Z,50.64
2022-09-04T20:25:24.440Z,51.00
2022-09-04T20:30:32.073Z,51.26
2022-09-04T20:35:44.694Z,51.51
2022-09-04T20:40:56.478Z,51.74
2022-09-04T20:50:20.088Z,51.75
2022-09-04T20:52:54.406Z,51.61
2022-09-04T21:03:12.414Z,51.32
2022-09-04T21:03:35.685Z,51.08
2022-09-04T21:08:40.138Z,50.85
2022-09-04T21:13:50.920Z,50.66
2022-09-04T21:19:29.258Z,50.89
2022-09-04T21:25:00.539Z,50.75
2022-09-04T21:30:12.777Z,50.58
2022-09-04T21:35:24.349Z,50.51
2022-09-04T21:40:55.482Z,50.40
2022-09-04T21:46:20.868Z,50.46
2022-09-04T21:51:56.582Z,50.36
2022-09-04T22:01:25.388Z,50.50
2022-09-04T22:03:35.220Z,50.43
2022-09-04T22:13:33.170Z,50.52
2022-09-04T22:14:30.666Z,50.51
2022-09-04T22:20:15.366Z,50.22
2022-09-04T22:25:39.955Z,49.86
2022-09-04T22:31:09.008Z,49.76
2022-09-04T22:36:50.395Z,49.78
2022-09-04T22:42:47.503Z,49.94
2022-09-04T22:48:15.769Z,50.10
2022-09-04T22:53:40.577Z,50.05
2022-09-04T22:59:25.994Z,50.03
2022-09-04T23:04:51.703Z,50.32
2022-09-04T23:13:46.537Z,50.33
2022-09-04T23:16:05.941Z,50.57
2022-09-04T23:26:37.587Z,50.93
2022-09-04T23:27:28.321Z,51.58
2022-09-04T23:33:03.836Z,51.94
2022-09-04T23:38:44.706Z,52.63
2022-09-04T23:44:47.517Z,53.09
2022-09-04T23:50:17.946Z,53.30
2022-09-04T23:55:56.726Z,54.01
